createdAt,value
2023-05-10T00:00:25.739Z,13.9
2023-05-10T00:01:25.764Z,13.9
2023-05-10T00:02:25.814Z,13.9
2023-05-10T00:03:25.839Z,13.8
2023-05-10T00:04:25.739Z,13.8
2023-05-10T00:05:25.737Z,13.8
2023-05-10T00:06:25.734Z,13.7
2023-05-10T00:07:25.738Z,13.7
2023-05-10T00:08:25.734Z,13.7
2023-05-10T00:09:26.755Z,13.7
2023-05-10T00:10:29.684Z,13.6
2023-05-10T00:11:32.712Z,13.6
2023-05-10T00:12:25.781Z,13.6
2023-05-10T00:13:25.847Z,13.6
2023-05-10T00:14:25.738Z,13.5
2023-05-10T00:15:25.762Z,13.5
2023-05-10T00:16:25.780Z,13.5
2023-05-10T00:17:25.756Z,13.5
2023-05-10T00:18:25.737Z,13.5
2023-05-10T00:19:25.738Z,13.4
2023-05-10T00:20:25.739Z,13.4
2023-05-10T00:21:25.737Z,13.4
2023-05-10T00:22:25.742Z,13.4
2023-05-10T00:23:25.741Z,13.3
2023-05-10T00:24:25.739Z,13.4
2023-05-10T00:25:25.737Z,13.3
2023-05-10T00:26:25.742Z,13.3
2023-05-10T00:27:25.738Z,13.3
2023-05-10T00:28:25.743Z,13.3
2023-05-10T00:29:25.754Z,13.2
2023-05-10T00:30:26.955Z,13.2
2023-05-10T00:31:29.802Z,13.2
2023-05-10T00:32:32.845Z,13.2
2023-05-10T00:33:25.735Z,13.2
2023-05-10T00:34:25.744Z,13.2
2023-05-10T00:35:25.775Z,13.1
2023-05-10T00:36:25.745Z,13.1
2023-05-10T00:37:25.745Z,13.1
2023-05-10T00:38:25.742Z,13.1
2023-05-10T00:39:25.740Z,13.1
2023-05-10T00:40:25.758Z,13.1
2023-05-10T00:41:25.745Z,13.1
2023-05-10T00:42:25.749Z,13.1
2023-05-10T00:43:25.743Z,13.1
2023-05-10T00:44:25.746Z,13.1
2023-05-10T00:45:25.782Z,13
2023-05-10T00:46:25.758Z,13
2023-05-10T00:47:25.749Z,13
2023-05-10T00:48:25.746Z,13
2023-05-10T00:49:25.748Z,13
2023-05-10T00:50:25.746Z,12.9
2023-05-10T00:51:26.905Z,12.9
2023-05-10T00:52:29.830Z,12.9
2023-05-10T00:53:32.823Z,12.9
2023-05-10T00:54:25.750Z,12.9
2023-05-10T00:55:25.874Z,12.9
2023-05-10T00:56:25.745Z,12.9
2023-05-10T00:57:25.732Z,12.9
2023-05-10T00:58:25.744Z,12.9
2023-05-10T00:59:25.737Z,12.9
2023-05-10T01:00:25.764Z,12.9
2023-05-10T01:01:25.770Z,12.8
2023-05-10T01:02:25.835Z,12.8
2023-05-10T01:03:25.778Z,12.8
2023-05-10T01:04:25.748Z,12.8
2023-05-10T01:05:25.819Z,12.8
2023-05-10T01:06:25.748Z,12.8
2023-05-10T01:07:25.743Z,12.8
2023-05-10T01:08:25.748Z,12.8
2023-05-10T01:09:25.903Z,12.8
2023-05-10T01:10:25.757Z,12.8
2023-05-10T01:11:25.737Z,12.7
2023-05-10T01:12:27.139Z,12.7
2023-05-10T01:13:30.071Z,12.8
2023-05-10T01:14:33.071Z,12.7
2023-05-10T01:15:25.760Z,12.7
2023-05-10T01:16:25.889Z,12.7
2023-05-10T01:17:25.788Z,12.7
2023-05-10T01:18:25.746Z,12.7
2023-05-10T01:19:25.744Z,12.7
2023-05-10T01:20:25.772Z,12.7
2023-05-10T01:22:25.739Z,12.7
2023-05-10T01:23:25.750Z,12.7
2023-05-10T01:24:25.739Z,12.7
2023-05-10T01:25:25.772Z,12.8
2023-05-10T01:26:25.759Z,12.8
2023-05-10T01:27:25.753Z,12.7
2023-05-10T01:28:25.751Z,12.8
2023-05-10T01:29:25.750Z,12.7
2023-05-10T01:30:25.897Z,12.8
2023-05-10T01:31:25.767Z,12.8
2023-05-10T01:32:25.780Z,12.8
2023-05-10T01:33:27.111Z,12.8
2023-05-10T01:34:30.075Z,12.8
2023-05-10T01:35:33.103Z,12.8
2023-05-10T01:36:25.742Z,12.8
2023-05-10T01:37:25.743Z,12.8
2023-05-10T01:38:25.749Z,12.8
2023-05-10T01:39:25.760Z,12.8
2023-05-10T01:40:25.755Z,12.8
2023-05-10T01:41:25.743Z,12.8
2023-05-10T01:42:25.748Z,12.8
2023-05-10T01:43:25.740Z,12.8
2023-05-10T01:44:25.742Z,12.8
2023-05-10T01:45:25.748Z,12.8
2023-05-10T01:46:25.784Z,12.8
2023-05-10T01:47:25.858Z,12.8
2023-05-10T01:48:25.742Z,12.8
2023-05-10T01:49:25.735Z,12.8
2023-05-10T01:50:25.753Z,12.9
2023-05-10T01:51:25.751Z,12.9
2023-05-10T01:52:25.745Z,12.8
2023-05-10T01:53:25.743Z,12.9
2023-05-10T01:54:27.241Z,12.9
2023-05-10T01:55:30.210Z,12.8
2023-05-10T01:56:33.147Z,12.8
2023-05-10T01:57:25.745Z,12.8
2023-05-10T01:58:25.744Z,12.9
2023-05-10T01:59:25.743Z,12.9
2023-05-10T02:00:25.761Z,12.8
2023-05-10T02:01:25.746Z,12.9
2023-05-10T02:02:25.840Z,12.9
2023-05-10T02:03:25.801Z,12.9
2023-05-10T02:04:25.749Z,12.9
2023-05-10T02:05:25.756Z,12.8
2023-05-10T02:06:25.744Z,12.9
2023-05-10T02:07:25.738Z,12.9
2023-05-10T02:08:25.878Z,12.9
2023-05-10T02:09:25.735Z,12.9
2023-05-10T02:10:25.761Z,12.9
2023-05-10T02:11:25.738Z,12.8
2023-05-10T02:12:25.739Z,12.8
2023-05-10T02:13:25.837Z,12.9
2023-05-10T02:14:25.743Z,12.8
2023-05-10T02:15:27.318Z,12.8
2023-05-10T02:16:30.271Z,12.8
2023-05-10T02:17:33.266Z,12.8
2023-05-10T02:18:25.744Z,12.8
2023-05-10T02:19:25.742Z,12.8
2023-05-10T02:20:25.743Z,12.8
2023-05-10T02:21:25.739Z,12.8
2023-05-10T02:22:25.744Z,12.8
2023-05-10T02:23:25.756Z,12.8
2023-05-10T02:24:25.738Z,12.8
2023-05-10T02:25:25.742Z,12.8
2023-05-10T02:26:25.740Z,12.7
2023-05-10T02:27:25.739Z,12.7
2023-05-10T02:28:25.738Z,12.7
2023-05-10T02:29:25.879Z,12.7
2023-05-10T02:30:25.756Z,12.7
2023-05-10T02:31:25.794Z,12.7
2023-05-10T02:32:25.763Z,12.7
2023-05-10T02:33:25.739Z,12.7
2023-05-10T02:34:25.739Z,12.7
2023-05-10T02:35:25.751Z,12.7
2023-05-10T02:36:27.333Z,12.7
2023-05-10T02:37:30.386Z,12.7
2023-05-10T02:38:32.773Z,12.7
2023-05-10T02:39:25.742Z,12.7
2023-05-10T02:40:27.416Z,12.7
2023-05-10T02:41:25.742Z,12.7
2023-05-10T02:42:25.761Z,12.7
2023-05-10T02:43:25.745Z,12.7
2023-05-10T02:44:25.745Z,12.7
2023-05-10T02:45:25.738Z,12.7
2023-05-10T02:46:25.783Z,12.7
2023-05-10T02:47:25.754Z,12.7
2023-05-10T02:49:25.746Z,12.6
2023-05-10T02:50:25.739Z,12.7
2023-05-10T02:51:25.732Z,12.7
2023-05-10T02:52:25.748Z,12.6
2023-05-10T02:53:25.748Z,12.7
2023-05-10T02:54:25.755Z,12.6
2023-05-10T02:55:25.748Z,12.6
2023-05-10T02:56:25.746Z,12.6
2023-05-10T02:57:27.447Z,12.6
2023-05-10T02:58:30.494Z,12.6
2023-05-10T03:00:25.775Z,12.6
2023-05-10T03:01:25.786Z,12.6
2023-05-10T03:02:25.807Z,12.6
2023-05-10T03:03:25.744Z,12.6
2023-05-10T03:04:25.779Z,12.6
2023-05-10T03:05:25.770Z,12.6
2023-05-10T03:06:25.745Z,12.6
2023-05-10T03:07:25.770Z,12.6
2023-05-10T03:08:25.747Z,12.6
2023-05-10T03:09:25.747Z,12.6
2023-05-10T03:10:25.782Z,12.6
2023-05-10T03:11:25.748Z,12.6
2023-05-10T03:12:25.746Z,12.6
2023-05-10T03:13:25.759Z,12.6
2023-05-10T03:14:25.745Z,12.6
2023-05-10T03:15:25.743Z,12.6
2023-05-10T03:16:25.848Z,12.6
2023-05-10T03:17:25.850Z,12.6
2023-05-10T03:18:27.462Z,12.6
2023-05-10T03:19:30.516Z,12.7
2023-05-10T03:20:25.749Z,12.7
2023-05-10T03:21:25.748Z,12.7
2023-05-10T03:22:25.748Z,12.7
2023-05-10T03:23:25.756Z,12.7
2023-05-10T03:24:25.740Z,12.7
2023-05-10T03:25:25.754Z,12.7
2023-05-10T03:26:25.748Z,12.7
2023-05-10T03:27:25.745Z,12.6
2023-05-10T03:28:25.757Z,12.7
2023-05-10T03:29:25.743Z,12.6
2023-05-10T03:30:25.753Z,12.6
2023-05-10T03:31:25.768Z,12.6
2023-05-10T03:32:25.753Z,12.6
2023-05-10T03:33:25.744Z,12.6
2023-05-10T03:34:25.760Z,12.6
2023-05-10T03:35:25.743Z,12.6
2023-05-10T03:36:25.740Z,12.6
2023-05-10T03:37:25.742Z,12.6
2023-05-10T03:38:25.886Z,12.6
2023-05-10T03:39:25.770Z,12.5
2023-05-10T03:40:27.655Z,12.5
2023-05-10T03:41:30.671Z,12.5
2023-05-10T03:42:25.746Z,12.5
2023-05-10T03:43:25.746Z,12.5
2023-05-10T03:44:25.755Z,12.5
2023-05-10T03:45:25.743Z,12.5
2023-05-10T03:46:25.787Z,12.5
2023-05-10T03:47:25.766Z,12.4
2023-05-10T03:48:25.743Z,12.4
2023-05-10T03:49:25.773Z,12.4
2023-05-10T03:50:25.745Z,12.4
2023-05-10T03:51:25.749Z,12.4
2023-05-10T03:52:25.749Z,12.3
2023-05-10T03:53:25.749Z,12.3
2023-05-10T03:54:25.769Z,12.3
2023-05-10T03:55:25.749Z,12.3
2023-05-10T03:56:25.750Z,12.2
2023-05-10T03:57:25.755Z,12.2
2023-05-10T03:58:25.743Z,12.2
2023-05-10T03:59:25.758Z,12.2
2023-05-10T04:00:25.750Z,12.2
2023-05-10T04:01:26.300Z,12.2
2023-05-10T04:02:29.177Z,12.2
2023-05-10T04:03:25.784Z,12.2
2023-05-10T04:04:25.768Z,12.1
2023-05-10T04:05:25.769Z,12.1
2023-05-10T04:06:25.766Z,12.1
2023-05-10T04:07:25.744Z,12.1
2023-05-10T04:08:25.751Z,12.1
2023-05-10T04:09:25.758Z,12.1
2023-05-10T04:10:25.749Z,12
2023-05-10T04:11:25.761Z,12
2023-05-10T04:12:25.941Z,12
2023-05-10T04:13:25.805Z,12
2023-05-10T04:14:25.766Z,12
2023-05-10T04:15:25.743Z,12
2023-05-10T04:16:25.778Z,12
2023-05-10T04:17:25.746Z,12
2023-05-10T04:18:25.863Z,12
2023-05-10T04:19:25.766Z,12
2023-05-10T04:20:25.741Z,12
2023-05-10T04:21:27.587Z,12
2023-05-10T04:23:30.865Z,11.9
2023-05-10T04:24:25.772Z,11.9
2023-05-10T04:25:25.748Z,11.9
2023-05-10T04:26:25.742Z,11.9
2023-05-10T04:27:25.739Z,11.9
2023-05-10T04:28:25.744Z,11.9
2023-05-10T04:29:25.782Z,11.9
2023-05-10T04:30:25.737Z,11.9
2023-05-10T04:31:25.826Z,11.9
2023-05-10T04:32:25.758Z,11.9
2023-05-10T04:33:25.741Z,12
2023-05-10T04:34:25.750Z,12
2023-05-10T04:35:25.745Z,12
2023-05-10T04:36:25.744Z,12
2023-05-10T04:37:25.748Z,12
2023-05-10T04:38:25.741Z,12
2023-05-10T04:39:25.885Z,12
2023-05-10T04:40:25.742Z,12
2023-05-10T04:41:25.737Z,12
2023-05-10T04:42:25.783Z,12
2023-05-10T04:43:27.483Z,12
2023-05-10T04:44:31.041Z,12
2023-05-10T04:45:25.939Z,12
2023-05-10T04:46:25.818Z,12
2023-05-10T04:47:26.037Z,12
2023-05-10T04:48:26.033Z,12
2023-05-10T04:49:25.750Z,12
2023-05-10T04:50:25.879Z,12
2023-05-10T04:51:25.756Z,12
2023-05-10T04:52:25.738Z,12
2023-05-10T04:53:25.738Z,12
2023-05-10T04:54:25.738Z,12
2023-05-10T04:55:25.743Z,12
2023-05-10T04:56:25.750Z,12
2023-05-10T04:57:25.762Z,12
2023-05-10T04:58:25.748Z,12
2023-05-10T04:59:25.750Z,12
2023-05-10T05:00:25.748Z,12.1
2023-05-10T05:01:25.775Z,12.1
2023-05-10T05:02:25.811Z,12.1
2023-05-10T05:03:25.880Z,12.1
2023-05-10T05:04:28.061Z,12.1
2023-05-10T05:05:31.132Z,12.2
2023-05-10T05:06:25.762Z,12.2
2023-05-10T05:07:25.748Z,12.2
2023-05-10T05:08:25.773Z,12.2
2023-05-10T05:09:25.756Z,12.2
2023-05-10T05:10:25.738Z,12.3
2023-05-10T05:11:25.897Z,12.3
2023-05-10T05:12:25.738Z,12.3
2023-05-10T05:13:25.903Z,12.4
2023-05-10T05:14:25.766Z,12.4
2023-05-10T05:15:25.743Z,12.4
2023-05-10T05:16:25.753Z,12.5
2023-05-10T05:17:25.793Z,12.5
2023-05-10T05:18:25.741Z,12.5
2023-05-10T05:19:25.760Z,12.5
2023-05-10T05:20:25.753Z,12.5
2023-05-10T05:21:25.748Z,12.6
2023-05-10T05:22:25.948Z,12.5
2023-05-10T05:23:25.805Z,12.6
2023-05-10T05:24:25.738Z,12.6
2023-05-10T05:25:28.138Z,12.6
2023-05-10T05:26:31.193Z,12.6
2023-05-10T05:27:25.740Z,12.7
2023-05-10T05:28:25.773Z,12.7
2023-05-10T05:29:25.748Z,12.7
2023-05-10T05:30:25.764Z,12.8
2023-05-10T05:31:25.741Z,12.8
2023-05-10T05:32:25.746Z,12.8
2023-05-10T05:33:25.740Z,12.9
2023-05-10T05:34:25.752Z,12.9
2023-05-10T05:35:25.787Z,12.9
2023-05-10T05:36:25.744Z,12.9
2023-05-10T05:37:25.741Z,13
2023-05-10T05:38:25.738Z,13
2023-05-10T05:39:25.735Z,13
2023-05-10T05:40:25.746Z,13
2023-05-10T05:41:25.757Z,13.1
2023-05-10T05:42:25.800Z,13.1
2023-05-10T05:43:25.744Z,13.1
2023-05-10T05:44:25.737Z,13.1
2023-05-10T05:45:25.737Z,13.1
2023-05-10T05:46:28.263Z,13.1
2023-05-10T05:47:31.334Z,13.1
2023-05-10T05:48:25.751Z,13.2
2023-05-10T05:49:25.742Z,13.2
2023-05-10T05:50:25.778Z,13.3
2023-05-10T05:51:25.749Z,13.3
2023-05-10T05:52:25.747Z,13.3
2023-05-10T05:53:25.754Z,13.3
2023-05-10T05:54:25.746Z,13.3
2023-05-10T05:55:25.764Z,13.4
2023-05-10T05:56:25.823Z,13.4
2023-05-10T05:57:25.732Z,13.4
2023-05-10T05:58:25.744Z,13.4
2023-05-10T05:59:25.744Z,13.5
2023-05-10T06:00:25.748Z,13.5
2023-05-10T06:01:25.748Z,13.5
2023-05-10T06:02:25.815Z,13.6
2023-05-10T06:03:25.929Z,13.7
2023-05-10T06:04:25.758Z,13.7
2023-05-10T06:05:25.747Z,13.7
2023-05-10T06:06:25.745Z,13.7
2023-05-10T06:07:28.373Z,13.7
2023-05-10T06:08:31.378Z,13.7
2023-05-10T06:09:25.753Z,13.7
2023-05-10T06:10:25.758Z,13.7
2023-05-10T06:11:25.752Z,13.7
2023-05-10T06:12:25.744Z,13.7
2023-05-10T06:13:25.765Z,13.7
2023-05-10T06:14:25.745Z,13.6
2023-05-10T06:15:25.737Z,13.6
2023-05-10T06:16:25.755Z,13.6
2023-05-10T06:17:25.748Z,13.6
2023-05-10T06:18:25.752Z,13.5
2023-05-10T06:19:25.743Z,13.5
2023-05-10T06:20:25.747Z,13.4
2023-05-10T06:21:25.755Z,13.4
2023-05-10T06:22:25.740Z,13.4
2023-05-10T06:23:25.747Z,13.4
2023-05-10T06:24:25.894Z,13.3
2023-05-10T06:26:25.754Z,13.3
2023-05-10T06:27:25.748Z,13.3
2023-05-10T06:28:28.398Z,13.3
2023-05-10T06:29:31.447Z,13.3
2023-05-10T06:30:25.751Z,13.3
2023-05-10T06:31:25.813Z,13.3
2023-05-10T06:32:25.773Z,13.3
2023-05-10T06:33:25.744Z,13.4
2023-05-10T06:34:25.739Z,13.4
2023-05-10T06:35:25.768Z,13.4
2023-05-10T06:36:25.735Z,13.5
2023-05-10T06:37:25.745Z,13.5
2023-05-10T06:38:25.756Z,13.5
2023-05-10T06:39:25.747Z,13.6
2023-05-10T06:41:25.754Z,13.7
2023-05-10T06:42:25.745Z,13.8
2023-05-10T06:43:25.745Z,13.8
2023-05-10T06:44:25.750Z,13.9
2023-05-10T06:45:25.744Z,13.9
2023-05-10T06:46:25.805Z,13.9
2023-05-10T06:47:25.761Z,13.9
2023-05-10T06:48:25.752Z,13.9
2023-05-10T06:49:25.741Z,14
2023-05-10T06:50:28.557Z,14
2023-05-10T06:51:31.591Z,14
2023-05-10T06:52:25.748Z,14
2023-05-10T06:53:25.746Z,14
2023-05-10T06:54:25.753Z,13.9
2023-05-10T06:55:25.743Z,14
2023-05-10T06:56:25.758Z,14
2023-05-10T06:57:31.531Z,14
2023-05-10T06:58:25.769Z,14
2023-05-10T06:59:25.777Z,14
2023-05-10T07:00:25.808Z,14
2023-05-10T07:01:25.788Z,14
2023-05-10T07:02:25.744Z,14
2023-05-10T07:03:25.743Z,14
2023-05-10T07:04:25.766Z,13.9
2023-05-10T07:05:25.836Z,13.9
2023-05-10T07:06:32.716Z,13.9
2023-05-10T07:07:25.736Z,13.8
2023-05-10T07:08:25.738Z,13.8
2023-05-10T07:09:25.744Z,13.8
2023-05-10T07:10:25.763Z,13.8
2023-05-10T07:11:28.639Z,13.8
2023-05-10T07:12:31.701Z,13.8
2023-05-10T07:13:25.822Z,13.7
2023-05-10T07:14:25.743Z,13.7
2023-05-10T07:15:25.770Z,13.7
2023-05-10T07:16:25.756Z,13.7
2023-05-10T07:17:25.792Z,13.7
2023-05-10T07:18:25.753Z,13.7
2023-05-10T07:19:25.747Z,13.7
2023-05-10T07:20:25.732Z,13.7
2023-05-10T07:21:25.835Z,13.6
2023-05-10T07:22:25.758Z,13.6
2023-05-10T07:23:25.765Z,13.6
2023-05-10T07:24:25.742Z,13.6
2023-05-10T07:25:25.743Z,13.7
2023-05-10T07:26:25.741Z,13.6
2023-05-10T07:27:25.746Z,13.7
2023-05-10T07:28:25.744Z,13.7
2023-05-10T07:29:25.748Z,13.7
2023-05-10T07:30:25.784Z,13.8
2023-05-10T07:31:25.852Z,13.8
2023-05-10T07:32:28.852Z,13.8
2023-05-10T07:33:31.730Z,13.9
2023-05-10T07:35:25.767Z,14.1
2023-05-10T07:36:25.746Z,14.2
2023-05-10T07:37:25.753Z,14.3
2023-05-10T07:38:25.738Z,14.3
2023-05-10T07:39:27.426Z,14.4
2023-05-10T07:40:25.770Z,14.5
2023-05-10T07:41:25.753Z,14.5
2023-05-10T07:42:25.745Z,14.5
2023-05-10T07:43:25.756Z,14.6
2023-05-10T07:44:25.748Z,14.6
2023-05-10T07:45:25.774Z,14.6
2023-05-10T07:46:25.766Z,14.7
2023-05-10T07:47:25.784Z,14.8
2023-05-10T07:48:25.748Z,14.8
2023-05-10T07:49:25.744Z,14.9
2023-05-10T07:50:25.737Z,15
2023-05-10T07:51:25.735Z,15.1
2023-05-10T07:52:25.893Z,15.2
2023-05-10T07:53:28.916Z,15.2
2023-05-10T07:54:31.882Z,15.2
2023-05-10T07:55:25.743Z,15.3
2023-05-10T07:56:25.755Z,15.4
2023-05-10T07:57:25.738Z,15.6
2023-05-10T07:58:25.741Z,15.6
2023-05-10T07:59:25.749Z,15.7
2023-05-10T08:00:25.749Z,15.7
2023-05-10T08:01:25.776Z,15.7
2023-05-10T08:02:25.812Z,15.7
2023-05-10T08:03:25.800Z,15.7
2023-05-10T08:04:25.795Z,15.7
2023-05-10T08:05:25.734Z,15.7
2023-05-10T08:06:25.744Z,15.6
2023-05-10T08:07:25.739Z,15.5
2023-05-10T08:08:25.740Z,15.5
2023-05-10T08:09:25.767Z,15.4
2023-05-10T08:10:25.739Z,15.4
2023-05-10T08:11:25.834Z,15.3
2023-05-10T08:12:25.734Z,15.3
2023-05-10T08:13:26.060Z,15.3
2023-05-10T08:14:28.920Z,15.3
2023-05-10T08:15:32.086Z,15.3
2023-05-10T08:16:25.786Z,15.4
2023-05-10T08:17:25.780Z,15.4
2023-05-10T08:18:25.786Z,15.4
2023-05-10T08:19:25.771Z,15.4
2023-05-10T08:20:25.778Z,15.3
2023-05-10T08:21:25.744Z,15.3
2023-05-10T08:22:25.734Z,15.3
2023-05-10T08:23:25.734Z,15.3
2023-05-10T08:24:25.828Z,15.3
2023-05-10T08:25:25.734Z,15.4
2023-05-10T08:26:25.763Z,15.4
2023-05-10T08:27:25.760Z,15.4
2023-05-10T08:28:25.734Z,15.5
2023-05-10T08:29:26.740Z,15.6
2023-05-10T08:30:25.741Z,15.7
2023-05-10T08:31:25.788Z,15.8
2023-05-10T08:32:25.775Z,15.8
2023-05-10T08:33:25.742Z,15.9
2023-05-10T08:34:26.219Z,16
2023-05-10T08:35:29.096Z,16
2023-05-10T08:36:32.000Z,16.1
2023-05-10T08:37:25.737Z,16.1
2023-05-10T08:38:25.786Z,16.2
2023-05-10T08:39:30.161Z,16.2
2023-05-10T08:40:25.740Z,16.3
2023-05-10T08:41:25.751Z,16.4
2023-05-10T08:42:25.736Z,16.5
2023-05-10T08:43:25.763Z,16.7
2023-05-10T08:44:25.744Z,16.8
2023-05-10T08:45:25.837Z,16.9
2023-05-10T08:46:25.767Z,17
2023-05-10T08:48:25.836Z,17.3
2023-05-10T08:49:25.741Z,17.4
2023-05-10T08:50:25.759Z,17.5
2023-05-10T08:51:25.744Z,17.5
2023-05-10T08:52:25.744Z,17.6
2023-05-10T08:53:25.781Z,17.5
2023-05-10T08:54:25.739Z,17.6
2023-05-10T08:55:26.258Z,17.6
2023-05-10T08:56:29.202Z,17.6
2023-05-10T08:57:32.142Z,17.6
2023-05-10T08:58:25.746Z,17.6
2023-05-10T08:59:25.745Z,17.5
2023-05-10T09:00:25.737Z,17.5
2023-05-10T09:01:25.844Z,17.5
2023-05-10T09:02:25.756Z,17.5
2023-05-10T09:03:25.764Z,17.5
2023-05-10T09:04:25.828Z,17.6
2023-05-10T09:05:25.822Z,17.6
2023-05-10T09:06:25.934Z,17.6
2023-05-10T09:07:25.738Z,17.7
2023-05-10T09:08:25.740Z,17.7
2023-05-10T09:09:25.744Z,17.8
2023-05-10T09:10:25.744Z,17.9
2023-05-10T09:11:25.743Z,18
2023-05-10T09:12:25.785Z,18.2
2023-05-10T09:13:25.742Z,18.2
2023-05-10T09:14:25.738Z,18.3
2023-05-10T09:15:25.748Z,18.4
2023-05-10T09:16:26.318Z,18.4
2023-05-10T09:17:29.343Z,18.4
2023-05-10T09:18:32.267Z,18.4
2023-05-10T09:19:25.742Z,18.4
2023-05-10T09:20:25.743Z,18.4
2023-05-10T09:21:25.738Z,18.4
2023-05-10T09:22:25.746Z,18.4
2023-05-10T09:23:25.750Z,18.3
2023-05-10T09:24:25.748Z,18.4
2023-05-10T09:25:25.743Z,18.4
2023-05-10T09:26:25.744Z,18.4
2023-05-10T09:27:25.738Z,18.4
2023-05-10T09:28:25.744Z,18.5
2023-05-10T09:29:25.753Z,18.5
2023-05-10T09:30:25.757Z,18.7
2023-05-10T09:31:25.798Z,18.8
2023-05-10T09:32:25.773Z,18.8
2023-05-10T09:33:25.755Z,18.9
2023-05-10T09:34:25.745Z,18.9
2023-05-10T09:35:27.960Z,18.9
2023-05-10T09:36:25.752Z,18.8
2023-05-10T09:37:26.426Z,18.8
2023-05-10T09:38:29.379Z,18.8
2023-05-10T09:39:32.361Z,18.7
2023-05-10T09:40:25.738Z,18.7
2023-05-10T09:41:25.743Z,18.5
2023-05-10T09:42:25.744Z,18.4
2023-05-10T09:43:25.741Z,18.3
2023-05-10T09:44:25.744Z,18.3
2023-05-10T09:45:25.732Z,18.2
2023-05-10T09:46:25.796Z,18.1
2023-05-10T09:47:25.784Z,18
2023-05-10T09:48:25.769Z,17.9
2023-05-10T09:49:25.759Z,17.8
2023-05-10T09:50:25.754Z,17.7
2023-05-10T09:51:25.767Z,17.6
2023-05-10T09:52:25.745Z,17.5
2023-05-10T09:53:25.760Z,17.4
2023-05-10T09:54:25.746Z,17.3
2023-05-10T09:55:25.760Z,17.2
2023-05-10T09:56:25.742Z,17
2023-05-10T09:57:25.742Z,17
2023-05-10T09:58:25.741Z,16.9
2023-05-10T09:59:26.682Z,16.9
2023-05-10T10:00:29.729Z,16.9
2023-05-10T10:01:32.650Z,16.8
2023-05-10T10:02:25.754Z,16.8
2023-05-10T10:03:25.923Z,16.8
2023-05-10T10:04:25.771Z,16.8
2023-05-10T10:05:25.742Z,16.8
2023-05-10T10:06:29.842Z,16.9
2023-05-10T10:07:25.746Z,16.9
2023-05-10T10:08:25.758Z,17
2023-05-10T10:09:25.765Z,17.2
2023-05-10T10:10:25.737Z,17.3
2023-05-10T10:11:25.755Z,17.4
2023-05-10T10:12:25.759Z,17.5
2023-05-10T10:13:25.766Z,17.6
2023-05-10T10:14:25.782Z,17.7
2023-05-10T10:15:25.741Z,17.9
2023-05-10T10:16:25.828Z,18.1
2023-05-10T10:17:25.746Z,18.2
2023-05-10T10:18:25.752Z,18.4
2023-05-10T10:19:25.760Z,18.5
2023-05-10T10:20:26.763Z,18.5
2023-05-10T10:21:29.753Z,18.8
2023-05-10T10:22:32.744Z,19
2023-05-10T10:23:25.751Z,19.1
2023-05-10T10:24:25.818Z,19.2
2023-05-10T10:25:25.761Z,19.2
2023-05-10T10:26:25.744Z,19.2
2023-05-10T10:27:25.741Z,19.2
2023-05-10T10:28:27.512Z,19.2
2023-05-10T10:29:25.778Z,19.2
2023-05-10T10:30:25.757Z,19.2
2023-05-10T10:31:25.770Z,19.2
2023-05-10T10:32:25.769Z,19.2
2023-05-10T10:33:28.236Z,19.3
2023-05-10T10:34:25.787Z,19.3
2023-05-10T10:35:25.751Z,19.4
2023-05-10T10:36:25.743Z,19.5
2023-05-10T10:37:25.742Z,19.7
2023-05-10T10:38:25.744Z,19.5
2023-05-10T10:39:25.744Z,19.5
2023-05-10T10:40:25.754Z,19.5
2023-05-10T10:41:27.020Z,19.5
2023-05-10T10:42:29.807Z,19.5
2023-05-10T10:43:32.900Z,19.4
2023-05-10T10:44:25.744Z,19.3
2023-05-10T10:45:25.875Z,19.2
2023-05-10T10:46:25.817Z,19.2
2023-05-10T10:47:25.901Z,19.1
2023-05-10T10:48:25.765Z,19.1
2023-05-10T10:49:25.742Z,19
2023-05-10T10:50:25.761Z,19
2023-05-10T10:51:25.745Z,18.9
2023-05-10T10:52:25.812Z,18.8
2023-05-10T10:54:25.749Z,18.5
2023-05-10T10:55:25.755Z,18.5
2023-05-10T10:56:25.746Z,18.5
2023-05-10T10:57:25.740Z,18.5
2023-05-10T10:58:25.749Z,18.5
2023-05-10T10:59:25.744Z,18.5
2023-05-10T11:00:25.777Z,18.7
2023-05-10T11:01:25.829Z,18.7
2023-05-10T11:02:26.534Z,18.7
2023-05-10T11:03:29.472Z,18.7
2023-05-10T11:04:32.466Z,18.8
2023-05-10T11:05:25.779Z,18.8
2023-05-10T11:06:25.760Z,18.8
2023-05-10T11:07:25.738Z,18.9
2023-05-10T11:08:25.774Z,18.9
2023-05-10T11:09:25.744Z,19
2023-05-10T11:10:25.747Z,19
2023-05-10T11:11:25.762Z,19.1
2023-05-10T11:12:25.815Z,19.1
2023-05-10T11:13:25.764Z,19.2
2023-05-10T11:14:25.758Z,19.3
2023-05-10T11:15:25.738Z,19.4
2023-05-10T11:16:25.792Z,19.5
2023-05-10T11:17:25.789Z,19.5
2023-05-10T11:18:25.786Z,19.7
2023-05-10T11:19:25.741Z,19.7
2023-05-10T11:20:25.753Z,19.7
2023-05-10T11:21:25.746Z,19.7
2023-05-10T11:22:25.742Z,19.5
2023-05-10T11:23:27.184Z,19.5
2023-05-10T11:24:30.120Z,19.5
2023-05-10T11:25:32.988Z,19.5
2023-05-10T11:26:25.737Z,19.4
2023-05-10T11:27:25.736Z,19.4
2023-05-10T11:28:25.749Z,19.4
2023-05-10T11:29:25.765Z,19.4
2023-05-10T11:30:25.744Z,19.5
2023-05-10T11:31:25.767Z,19.5
2023-05-10T11:32:25.783Z,19.7
2023-05-10T11:33:25.738Z,19.7
2023-05-10T11:34:25.768Z,19.7
2023-05-10T11:35:25.830Z,19.8
2023-05-10T11:36:26.084Z,19.8
2023-05-10T11:37:25.767Z,19.8
2023-05-10T11:38:25.739Z,19.8
2023-05-10T11:39:25.756Z,19.8
2023-05-10T11:40:25.745Z,19.8
2023-05-10T11:41:25.748Z,19.8
2023-05-10T11:42:25.750Z,19.8
2023-05-10T11:43:25.743Z,19.8
2023-05-10T11:44:27.153Z,19.8
2023-05-10T11:45:30.187Z,19.7
2023-05-10T11:46:33.351Z,19.7
2023-05-10T11:47:25.808Z,19.7
2023-05-10T11:48:25.739Z,19.7
2023-05-10T11:49:25.770Z,19.7
2023-05-10T11:50:25.750Z,19.7
2023-05-10T11:51:25.763Z,19.7
2023-05-10T11:52:25.747Z,19.5
2023-05-10T11:53:25.953Z,19.5
2023-05-10T11:54:25.737Z,19.4
2023-05-10T11:55:25.760Z,19.4
2023-05-10T11:56:25.740Z,19.3
2023-05-10T11:57:25.749Z,19.3
2023-05-10T11:58:25.825Z,19.2
2023-05-10T11:59:25.742Z,19.2
2023-05-10T12:00:25.741Z,19.2
2023-05-10T12:01:25.752Z,19.3
2023-05-10T12:02:25.851Z,19.4
2023-05-10T12:04:25.761Z,19.4
2023-05-10T12:05:27.212Z,19.4
2023-05-10T12:06:30.248Z,19.4
2023-05-10T12:07:33.242Z,19.5
2023-05-10T12:08:25.740Z,19.5
2023-05-10T12:09:35.874Z,19.7
2023-05-10T12:10:25.738Z,19.7
2023-05-10T12:11:25.755Z,19.8
2023-05-10T12:12:25.778Z,19.8
2023-05-10T12:13:25.735Z,19.8
2023-05-10T12:14:25.751Z,19.9
2023-05-10T12:15:25.748Z,19.9
2023-05-10T12:16:25.787Z,20.1
2023-05-10T12:17:25.767Z,20.1
2023-05-10T12:18:25.753Z,20.2
2023-05-10T12:19:25.931Z,20.3
2023-05-10T12:20:25.745Z,20.3
2023-05-10T12:21:25.743Z,20.3
2023-05-10T12:22:25.746Z,20.5
2023-05-10T12:23:25.754Z,20.3
2023-05-10T12:24:25.740Z,20.5
2023-05-10T12:25:25.738Z,20.5
2023-05-10T12:26:27.328Z,20.5
2023-05-10T12:27:30.313Z,20.3
2023-05-10T12:28:33.339Z,20.2
2023-05-10T12:29:25.737Z,20.2
2023-05-10T12:30:25.754Z,20.1
2023-05-10T12:31:25.762Z,20
2023-05-10T12:32:25.757Z,20
2023-05-10T12:33:25.752Z,19.9
2023-05-10T12:34:25.741Z,19.8
2023-05-10T12:35:25.743Z,19.7
2023-05-10T12:36:25.739Z,19.5
2023-05-10T12:37:25.751Z,19.4
2023-05-10T12:38:25.766Z,19.3
2023-05-10T12:39:25.756Z,19.3
2023-05-10T12:40:25.904Z,19.2
2023-05-10T12:41:25.743Z,19.1
2023-05-10T12:42:25.736Z,19
2023-05-10T12:43:25.745Z,19
2023-05-10T12:44:25.741Z,18.8
2023-05-10T12:45:25.744Z,18.8
2023-05-10T12:46:25.799Z,18.7
2023-05-10T12:47:27.452Z,18.7
2023-05-10T12:48:30.469Z,18.5
2023-05-10T12:49:32.803Z,18.5
2023-05-10T12:50:25.746Z,18.4
2023-05-10T12:51:25.739Z,18.4
2023-05-10T12:52:25.791Z,18.4
2023-05-10T12:53:25.748Z,18.4
2023-05-10T12:54:25.748Z,18.3
2023-05-10T12:55:25.758Z,18.3
2023-05-10T12:56:25.747Z,18.4
2023-05-10T12:57:25.747Z,18.4
2023-05-10T12:58:34.760Z,18.4
2023-05-10T12:59:25.747Z,18.4
2023-05-10T13:00:25.768Z,18.4
2023-05-10T13:01:25.764Z,18.5
2023-05-10T13:02:25.788Z,18.5
2023-05-10T13:03:25.743Z,18.5
2023-05-10T13:04:25.768Z,18.4
2023-05-10T13:05:25.774Z,18.4
2023-05-10T13:06:25.750Z,18.4
2023-05-10T13:07:25.760Z,18.4
2023-05-10T13:08:27.504Z,18.4
2023-05-10T13:09:30.616Z,18.5
2023-05-10T13:10:26.011Z,18.5
2023-05-10T13:11:25.750Z,18.7
2023-05-10T13:12:25.747Z,18.7
2023-05-10T13:13:25.759Z,18.8
2023-05-10T13:14:25.739Z,18.8
2023-05-10T13:15:25.738Z,18.9
2023-05-10T13:16:25.747Z,18.9
2023-05-10T13:17:25.760Z,19
2023-05-10T13:18:25.803Z,19.1
2023-05-10T13:19:25.744Z,19.1
2023-05-10T13:20:25.755Z,19.1
2023-05-10T13:21:25.748Z,19.2
2023-05-10T13:22:36.771Z,19.1
2023-05-10T13:23:25.764Z,19.2
2023-05-10T13:24:25.739Z,19.2
2023-05-10T13:25:25.753Z,19.2
2023-05-10T13:26:25.758Z,19.2
2023-05-10T13:27:25.742Z,19.2
2023-05-10T13:28:25.757Z,19.2
2023-05-10T13:29:25.746Z,19.2
2023-05-10T13:30:27.645Z,19.2
2023-05-10T13:31:30.704Z,19.3
2023-05-10T13:32:25.758Z,19.4
2023-05-10T13:33:25.760Z,19.4